Time;durP1;ratioP1;P1;durP2;ratioP2;P2;SDS_P1;SDS_P2;PMS_P1;PMS_P2;Temp;Humidity;BMP_temperature;BMP_pressure;BME280_temperature;BME280_humidity;BME280_pressure;Samples;Min_cycle;Max_cycle;Signal;HPM_P1;HPM_P2
2022/12/05 00:03:33;;;;;;;;;;;1.50;99.90;;;;;;12334016;28;19930;-39
2022/12/05 00:09:34;;;;;;;;;;;1.50;99.90;;;;;;12344721;28;19926;-39
2022/12/05 00:15:37;;;;;;;;;;;1.60;99.90;;;;;;12337723;28;20057;-39
2022/12/05 00:21:39;;;;;;;;;;;1.50;99.90;;;;;;12338682;28;20028;-39
2022/12/05 00:27:41;;;;;;;;;;;1.60;99.90;;;;;;12335670;28;20370;-39
2022/12/05 00:33:43;;;;;;;;;;;1.60;99.90;;;;;;12338073;28;19926;-39
2022/12/05 00:39:45;;;;;;;;;;;1.50;99.90;;;;;;12344350;28;20263;-39
2022/12/05 00:45:47;;;;;;;;;;;1.60;99.90;;;;;;12345078;28;19933;-39
2022/12/05 00:51:48;;;;;;;;;;;1.50;99.90;;;;;;12338612;28;19941;-39
2022/12/05 00:57:50;;;;;;;;;;;1.60;99.90;;;;;;12340342;28;19926;-39
2022/12/05 01:03:55;;;;;;;;;;;1.60;99.90;;;;;;12337198;28;19985;-39
2022/12/05 01:09:57;;;;;;;;;;;1.60;99.90;;;;;;12336450;28;19926;-39
2022/12/05 01:15:59;;;;;;;;;;;1.60;99.90;;;;;;12337997;28;19934;-39
2022/12/05 01:22:01;;;;;;;;;;;1.60;99.90;;;;;;12332360;28;19926;-39
2022/12/05 01:28:03;;;;;;;;;;;1.60;99.90;;;;;;12340891;28;20382;-39
2022/12/05 01:34:06;;;;;;;;;;;1.60;99.90;;;;;;12332435;28;20393;-39
2022/12/05 01:40:08;;;;;;;;;;;1.60;99.90;;;;;;12333834;28;20017;-39
2022/12/05 01:46:09;;;;;;;;;;;1.70;99.90;;;;;;12335550;28;20290;-39
2022/12/05 01:52:19;;;;;;;;;;;1.60;99.90;;;;;;12340197;28;19926;-39
2022/12/05 01:58:23;;;;;;;;;;;1.70;99.90;;;;;;12339181;28;19937;-39
2022/12/05 02:04:26;;;;;;;;;;;1.70;99.90;;;;;;12335929;28;19927;-39
2022/12/05 02:10:29;;;;;;;;;;;1.70;99.90;;;;;;12337175;28;19934;-39
2022/12/05 02:16:43;;;;;;;;;;;1.70;99.90;;;;;;12331065;28;19934;-39
2022/12/05 02:23:00;;;;;;;;;;;1.70;99.90;;;;;;12340345;28;19945;-39
2022/12/05 02:29:35;;;;;;;;;;;1.70;99.90;;;;;;12335090;28;20026;-39
2022/12/05 02:35:51;;;;;;;;;;;1.70;99.90;;;;;;12274214;28;19983;-39
2022/12/05 02:42:19;;;;;;;;;;;1.70;99.90;;;;;;12338146;28;19927;-39
2022/12/05 02:48:21;;;;;;;;;;;1.70;99.90;;;;;;12330423;28;19930;-39
2022/12/05 02:54:25;;;;;;;;;;;1.80;99.90;;;;;;12340203;28;19933;-39
2022/12/05 03:00:27;;;;;;;;;;;1.70;99.90;;;;;;12333089;28;19933;-39
2022/12/05 03:06:40;;;;;;;;;;;1.70;99.90;;;;;;12323785;28;19926;-39
2022/12/05 03:12:46;;;;;;;;;;;1.80;99.90;;;;;;12338844;28;19930;-39
2022/12/05 03:18:51;;;;;;;;;;;1.70;99.90;;;;;;12337954;28;19933;-40
2022/12/05 03:24:53;;;;;;;;;;;1.70;99.90;;;;;;12346020;28;19930;-39
2022/12/05 03:31:00;;;;;;;;;;;1.80;99.90;;;;;;12345639;28;19926;-39
2022/12/05 03:37:04;;;;;;;;;;;1.70;99.90;;;;;;12337812;28;19930;-39
2022/12/05 03:43:13;;;;;;;;;;;1.80;99.90;;;;;;12335235;28;19926;-39
2022/12/05 03:49:27;;;;;;;;;;;1.80;99.90;;;;;;12342422;28;20554;-39
2022/12/05 03:55:37;;;;;;;;;;;1.80;99.90;;;;;;12334243;28;19926;-39
2022/12/05 04:01:42;;;;;;;;;;;1.80;99.90;;;;;;12346777;28;19926;-39
2022/12/05 04:07:45;;;;;;;;;;;1.80;99.90;;;;;;12345604;28;19977;-38
2022/12/05 04:13:48;;;;;;;;;;;1.80;99.90;;;;;;12346330;28;19946;-39
2022/12/05 04:26:20;;;;;;;;;;;1.80;99.90;;;;;;12337182;28;19930;-39
2022/12/05 04:32:24;;;;;;;;;;;1.80;99.90;;;;;;12335047;28;19927;-39
2022/12/05 04:38:29;;;;;;;;;;;1.80;99.90;;;;;;12336371;28;19926;-39
2022/12/05 04:44:37;;;;;;;;;;;1.80;99.90;;;;;;12332956;28;19934;-39
2022/12/05 04:50:38;;;;;;;;;;;1.90;99.90;;;;;;12338321;28;20297;-39
2022/12/05 04:56:41;;;;;;;;;;;1.80;99.90;;;;;;12343982;28;19937;-39
2022/12/05 05:02:43;;;;;;;;;;;1.80;99.90;;;;;;12333852;28;20307;-39
2022/12/05 05:08:55;;;;;;;;;;;1.80;99.90;;;;;;12346204;28;20024;-39
2022/12/05 05:14:57;;;;;;;;;;;1.80;99.90;;;;;;12348778;28;20021;-39
2022/12/05 05:20:58;;;;;;;;;;;1.90;99.90;;;;;;12338491;28;20386;-39
2022/12/05 05:27:00;;;;;;;;;;;1.80;99.90;;;;;;12336868;28;20406;-39
2022/12/05 05:33:02;;;;;;;;;;;1.90;99.90;;;;;;12340922;28;19926;-39
2022/12/05 05:39:05;;;;;;;;;;;1.90;99.90;;;;;;12339752;28;19930;-39
2022/12/05 05:45:07;;;;;;;;;;;1.80;99.90;;;;;;12333120;28;20346;-39
2022/12/05 05:51:09;;;;;;;;;;;1.80;99.90;;;;;;12336671;28;20310;-39
2022/12/05 05:57:11;;;;;;;;;;;1.90;99.90;;;;;;12340499;28;19933;-39
2022/12/05 06:03:20;;;;;;;;;;;1.90;99.90;;;;;;12335517;28;19984;-39
2022/12/05 06:09:22;;;;;;;;;;;1.90;99.90;;;;;;12341991;28;19953;-39
2022/12/05 06:15:24;;;;;;;;;;;1.90;99.90;;;;;;12334931;28;19926;-39
2022/12/05 06:21:26;;;;;;;;;;;1.90;99.90;;;;;;12341358;28;20301;-39
2022/12/05 06:27:28;;;;;;;;;;;1.80;99.90;;;;;;12341136;28;19926;-38
2022/12/05 06:33:30;;;;;;;;;;;1.90;99.90;;;;;;12335567;28;20294;-39
2022/12/05 06:39:31;;;;;;;;;;;1.80;99.90;;;;;;12334616;28;19926;-39
2022/12/05 06:45:33;;;;;;;;;;;1.80;99.90;;;;;;12340597;28;19930;-39
2022/12/05 06:51:35;;;;;;;;;;;1.80;99.90;;;;;;12337388;28;19926;-39
2022/12/05 06:57:36;;;;;;;;;;;1.80;99.90;;;;;;12344526;28;19934;-39
2022/12/05 07:03:39;;;;;;;;;;;1.80;99.90;;;;;;12349690;28;19989;-39
2022/12/05 07:09:52;;;;;;;;;;;1.80;99.90;;;;;;12345654;28;19930;-39
2022/12/05 07:15:54;;;;;;;;;;;1.80;99.90;;;;;;12336499;28;20406;-41
2022/12/05 07:21:56;;;;;;;;;;;1.80;99.90;;;;;;12327969;28;19934;-40
2022/12/05 07:27:58;;;;;;;;;;;1.70;99.90;;;;;;12342895;28;20352;-39
2022/12/05 07:33:59;;;;;;;;;;;1.70;99.90;;;;;;12341149;28;20321;-39
2022/12/05 07:40:01;;;;;;;;;;;1.70;99.90;;;;;;12335594;28;20382;-39
2022/12/05 07:46:04;;;;;;;;;;;1.60;99.90;;;;;;12340378;28;20428;-39
2022/12/05 07:52:08;;;;;;;;;;;1.60;99.90;;;;;;12353778;28;20264;-38
2022/12/05 07:58:10;;;;;;;;;;;1.70;99.90;;;;;;12332200;28;20291;-39
2022/12/05 08:04:11;;;;;;;;;;;1.70;99.90;;;;;;12331717;28;19927;-39
2022/12/05 08:10:16;;;;;;;;;;;1.50;99.90;;;;;;12322405;28;19938;-39
2022/12/05 08:16:19;;;;;;;;;;;1.50;99.90;;;;;;12338083;28;20337;-39
2022/12/05 08:22:21;;;;;;;;;;;1.50;99.90;;;;;;12340377;28;19934;-39
2022/12/05 08:28:23;;;;;;;;;;;1.50;99.90;;;;;;12338010;28;19933;-39
2022/12/05 08:34:25;;;;;;;;;;;1.40;99.90;;;;;;12334099;28;19926;-39
2022/12/05 08:40:27;;;;;;;;;;;1.40;99.90;;;;;;12341322;28;19929;-39
2022/12/05 08:46:29;;;;;;;;;;;1.50;99.90;;;;;;12344314;28;19926;-39
2022/12/05 08:52:31;;;;;;;;;;;1.50;99.90;;;;;;12339478;28;19930;-39
2022/12/05 08:58:33;;;;;;;;;;;1.60;99.90;;;;;;12336055;28;19930;-39
2022/12/05 09:04:35;;;;;;;;;;;1.60;99.90;;;;;;12341974;28;19946;-39
2022/12/05 09:10:37;;;;;;;;;;;1.70;99.90;;;;;;12342148;28;20052;-39
2022/12/05 09:16:42;;;;;;;;;;;1.70;99.90;;;;;;12335666;28;20431;-39
2022/12/05 09:22:44;;;;;;;;;;;1.70;99.90;;;;;;12335023;28;20293;-40
2022/12/05 09:28:45;;;;;;;;;;;1.60;99.90;;;;;;12342140;28;20014;-39
2022/12/05 09:34:47;;;;;;;;;;;1.60;99.90;;;;;;12334929;28;19926;-39
2022/12/05 09:41:09;;;;;;;;;;;1.50;99.90;;;;;;12336798;28;20016;-38
2022/12/05 09:47:26;;;;;;;;;;;1.60;99.90;;;;;;12326891;28;19930;-39
2022/12/05 09:53:38;;;;;;;;;;;1.80;99.90;;;;;;12341420;28;19937;-39
2022/12/05 09:59:40;;;;;;;;;;;1.80;99.90;;;;;;12333197;28;20387;-39
2022/12/05 10:05:58;;;;;;;;;;;1.80;99.90;;;;;;12337495;28;19926;-39
2022/12/05 10:12:09;;;;;;;;;;;2.00;99.90;;;;;;12344720;28;20302;-39
2022/12/05 10:18:25;;;;;;;;;;;2.00;99.90;;;;;;12335404;28;19934;-39
2022/12/05 10:24:32;;;;;;;;;;;2.00;99.90;;;;;;12340573;28;19926;-39
2022/12/05 10:30:35;;;;;;;;;;;2.20;99.90;;;;;;12349692;28;19926;-39
2022/12/05 10:36:38;;;;;;;;;;;2.40;99.90;;;;;;12346974;28;19936;-39
2022/12/05 10:42:39;;;;;;;;;;;2.40;99.90;;;;;;12349516;28;19933;-39
2022/12/05 10:48:42;;;;;;;;;;;2.50;99.90;;;;;;12349221;28;20065;-38
2022/12/05 10:54:50;;;;;;;;;;;2.50;99.90;;;;;;12355734;28;20340;-39
2022/12/05 11:00:57;;;;;;;;;;;2.50;99.90;;;;;;12348482;28;19926;-39
2022/12/05 11:07:00;;;;;;;;;;;2.50;99.90;;;;;;12341164;28;19930;-39
2022/12/05 11:13:13;;;;;;;;;;;2.40;99.90;;;;;;12352490;28;19933;-38
2022/12/05 11:19:20;;;;;;;;;;;2.40;99.90;;;;;;12334457;28;20344;-39
2022/12/05 11:25:24;;;;;;;;;;;2.20;99.90;;;;;;12338342;28;20301;-39
2022/12/05 11:31:27;;;;;;;;;;;2.20;99.90;;;;;;12342149;28;19949;-39
2022/12/05 11:37:32;;;;;;;;;;;2.20;99.90;;;;;;12339946;28;20002;-39
2022/12/05 11:43:53;;;;;;;;;;;2.30;99.90;;;;;;12348897;28;19932;-39
2022/12/05 11:49:57;;;;;;;;;;;2.30;99.90;;;;;;12344851;28;19936;-39
2022/12/05 11:56:05;;;;;;;;;;;2.30;99.90;;;;;;12344524;28;19926;-39
2022/12/05 12:02:25;;;;;;;;;;;2.40;99.90;;;;;;12338279;28;19927;-39
2022/12/05 12:08:28;;;;;;;;;;;2.40;99.90;;;;;;12345154;28;20397;-40
2022/12/05 12:14:42;;;;;;;;;;;2.20;99.90;;;;;;12334278;28;20407;-39
2022/12/05 12:20:53;;;;;;;;;;;2.20;99.90;;;;;;12336876;28;20386;-39
2022/12/05 12:27:08;;;;;;;;;;;2.20;99.90;;;;;;12337080;28;19930;-39
2022/12/05 12:33:12;;;;;;;;;;;2.10;99.90;;;;;;12340666;28;19976;-39
2022/12/05 12:39:23;;;;;;;;;;;2.10;99.90;;;;;;12340792;28;20013;-38
2022/12/05 12:45:44;;;;;;;;;;;2.10;99.90;;;;;;12342826;28;19930;-39
2022/12/05 12:51:52;;;;;;;;;;;2.10;99.90;;;;;;12341937;28;20397;-39
2022/12/05 12:57:59;;;;;;;;;;;2.10;99.90;;;;;;12341319;28;19932;-39
2022/12/05 13:04:05;;;;;;;;;;;2.10;99.90;;;;;;12335702;28;19930;-39
2022/12/05 13:10:12;;;;;;;;;;;2.10;99.90;;;;;;12340528;28;19927;-39
2022/12/05 13:16:21;;;;;;;;;;;2.00;99.90;;;;;;12285366;28;19937;-39
2022/12/05 13:22:24;;;;;;;;;;;2.10;99.90;;;;;;12339934;28;20370;-39
2022/12/05 13:28:30;;;;;;;;;;;2.10;99.90;;;;;;12336312;28;19937;-39
2022/12/05 13:34:44;;;;;;;;;;;2.10;99.90;;;;;;12324969;28;19930;-39
2022/12/05 13:47:20;;;;;;;;;;;2.10;99.90;;;;;;12336271;28;19934;-39
2022/12/05 13:53:36;;;;;;;;;;;2.10;99.90;;;;;;12345843;28;19934;-39
2022/12/05 13:59:56;;;;;;;;;;;2.00;99.90;;;;;;12338569;28;19932;-39
2022/12/05 14:05:59;;;;;;;;;;;1.90;99.90;;;;;;12337317;28;20362;-39
2022/12/05 14:12:09;;;;;;;;;;;1.90;99.90;;;;;;12338885;28;19934;-38
2022/12/05 14:18:21;;;;;;;;;;;1.90;99.90;;;;;;12334488;28;20359;-39
2022/12/05 14:24:31;;;;;;;;;;;2.00;99.90;;;;;;12339132;28;19934;-38
2022/12/05 14:30:33;;;;;;;;;;;1.80;99.90;;;;;;12337837;28;20279;-39
2022/12/05 14:36:37;;;;;;;;;;;1.60;99.90;;;;;;12334008;28;20275;-39
2022/12/05 14:42:49;;;;;;;;;;;1.60;99.90;;;;;;12334401;28;19926;-39
2022/12/05 14:48:51;;;;;;;;;;;1.60;99.90;;;;;;12340460;28;19930;-39
2022/12/05 14:54:56;;;;;;;;;;;1.60;99.90;;;;;;12344625;28;19930;-40
2022/12/05 15:01:13;;;;;;;;;;;1.60;99.90;;;;;;12334505;28;19933;-39
2022/12/05 15:07:17;;;;;;;;;;;1.50;99.90;;;;;;12337511;28;19969;-39
2022/12/05 15:13:21;;;;;;;;;;;1.50;99.90;;;;;;12339745;28;20371;-39
2022/12/05 15:19:28;;;;;;;;;;;1.40;99.90;;;;;;12343829;28;20453;-39
2022/12/05 15:25:31;;;;;;;;;;;1.50;99.90;;;;;;12346486;28;19937;-39
2022/12/05 15:31:34;;;;;;;;;;;1.20;99.90;;;;;;12343541;28;19937;-40
2022/12/05 15:37:46;;;;;;;;;;;1.20;99.90;;;;;;12340261;28;20017;-39
2022/12/05 15:43:55;;;;;;;;;;;1.10;99.90;;;;;;12334097;28;20382;-39
2022/12/05 15:49:57;;;;;;;;;;;1.10;99.90;;;;;;12348518;28;19925;-39
2022/12/05 15:56:04;;;;;;;;;;;1.20;99.90;;;;;;12345473;28;19934;-39
2022/12/05 16:02:12;;;;;;;;;;;1.20;99.90;;;;;;12341535;28;20282;-38
2022/12/05 16:08:14;;;;;;;;;;;1.30;99.90;;;;;;12343193;28;20418;-39
2022/12/05 16:14:16;;;;;;;;;;;1.20;99.90;;;;;;12345016;28;19949;-40
2022/12/05 16:20:38;;;;;;;;;;;1.20;99.90;;;;;;12338277;28;19926;-39
2022/12/05 16:26:40;;;;;;;;;;;1.20;99.90;;;;;;12341955;28;19926;-39
2022/12/05 16:32:43;;;;;;;;;;;1.10;99.90;;;;;;12323934;28;20382;-39
2022/12/05 16:38:45;;;;;;;;;;;1.20;99.90;;;;;;12344025;28;19932;-39
2022/12/05 16:44:47;;;;;;;;;;;1.20;99.90;;;;;;12342339;28;19934;-39
2022/12/05 16:50:50;;;;;;;;;;;1.20;99.90;;;;;;12340265;28;20009;-39
2022/12/05 16:56:52;;;;;;;;;;;1.30;99.90;;;;;;12337241;28;20294;-39
2022/12/05 17:02:54;;;;;;;;;;;1.30;99.90;;;;;;12341724;28;19926;-39
2022/12/05 17:08:56;;;;;;;;;;;1.20;99.90;;;;;;12344983;28;19935;-39
2022/12/05 17:14:58;;;;;;;;;;;1.20;99.90;;;;;;12337550;28;19926;-40
2022/12/05 17:21:01;;;;;;;;;;;1.20;99.90;;;;;;12324848;28;19930;-39
2022/12/05 17:27:04;;;;;;;;;;;1.20;99.90;;;;;;12337915;28;19930;-39
2022/12/05 17:33:08;;;;;;;;;;;1.30;99.90;;;;;;12339728;28;19926;-39
2022/12/05 17:39:10;;;;;;;;;;;1.30;99.90;;;;;;12320939;28;19927;-39
2022/12/05 17:45:13;;;;;;;;;;;1.30;99.90;;;;;;12338760;28;20077;-39
2022/12/05 17:51:15;;;;;;;;;;;1.20;99.90;;;;;;12348690;28;19930;-39
2022/12/05 17:57:16;;;;;;;;;;;1.30;99.90;;;;;;12340331;28;19934;-39
2022/12/05 18:03:18;;;;;;;;;;;1.40;99.90;;;;;;12351500;28;20412;-39
2022/12/05 18:09:20;;;;;;;;;;;1.30;99.90;;;;;;12338994;28;19973;-39
2022/12/05 18:15:22;;;;;;;;;;;1.40;99.90;;;;;;12333967;28;19930;-40
2022/12/05 18:21:24;;;;;;;;;;;1.30;99.90;;;;;;12339623;28;19949;-39
2022/12/05 18:27:25;;;;;;;;;;;1.30;99.90;;;;;;12330357;28;19965;-39
2022/12/05 18:33:27;;;;;;;;;;;1.30;99.90;;;;;;12340010;28;20378;-38
2022/12/05 18:39:29;;;;;;;;;;;1.30;99.90;;;;;;12329097;28;19988;-39
2022/12/05 18:45:30;;;;;;;;;;;1.30;99.90;;;;;;12339100;28;19964;-39
2022/12/05 18:51:33;;;;;;;;;;;1.20;99.90;;;;;;12343412;28;19989;-40
2022/12/05 18:57:35;;;;;;;;;;;1.20;99.90;;;;;;12341609;28;19934;-39
2022/12/05 19:03:38;;;;;;;;;;;1.20;99.90;;;;;;12342600;28;19930;-39
2022/12/05 19:09:39;;;;;;;;;;;1.10;99.90;;;;;;12351767;28;19926;-39
2022/12/05 19:15:41;;;;;;;;;;;1.20;99.90;;;;;;12347465;28;20013;-39
2022/12/05 19:21:43;;;;;;;;;;;1.20;99.90;;;;;;12347013;28;19934;-39
2022/12/05 19:27:45;;;;;;;;;;;1.20;99.90;;;;;;12348517;28;20421;-39
2022/12/05 19:33:49;;;;;;;;;;;1.10;99.90;;;;;;12340378;28;19946;-39
2022/12/05 19:39:51;;;;;;;;;;;1.10;99.90;;;;;;12342589;28;19989;-38
2022/12/05 19:45:53;;;;;;;;;;;1.10;99.90;;;;;;12346138;28;19980;-39
2022/12/05 19:51:54;;;;;;;;;;;1.10;99.90;;;;;;12341788;28;20514;-39
2022/12/05 19:57:56;;;;;;;;;;;1.10;99.90;;;;;;12340926;28;19937;-39
2022/12/05 20:03:59;;;;;;;;;;;1.10;99.90;;;;;;12339951;28;19926;-39
2022/12/05 20:10:01;;;;;;;;;;;1.10;99.90;;;;;;12346181;28;19930;-39
2022/12/05 20:16:03;;;;;;;;;;;1.10;99.90;;;;;;12341839;28;19930;-39
2022/12/05 20:22:05;;;;;;;;;;;1.20;99.90;;;;;;12343770;28;19933;-39
2022/12/05 20:28:07;;;;;;;;;;;1.20;99.90;;;;;;12340711;28;19941;-39
2022/12/05 20:34:12;;;;;;;;;;;1.30;99.90;;;;;;12341001;28;19961;-39
2022/12/05 20:40:14;;;;;;;;;;;1.10;99.90;;;;;;12339661;28;19934;-39
2022/12/05 20:46:17;;;;;;;;;;;1.20;99.90;;;;;;12343342;28;19926;-38
2022/12/05 20:52:18;;;;;;;;;;;1.20;99.90;;;;;;12339737;28;19926;-40
2022/12/05 20:58:20;;;;;;;;;;;1.10;99.90;;;;;;12343263;28;19933;-39
2022/12/05 21:04:22;;;;;;;;;;;1.10;99.90;;;;;;12339125;28;19942;-39
2022/12/05 21:10:24;;;;;;;;;;;1.20;99.90;;;;;;12345564;28;19941;-39
2022/12/05 21:16:26;;;;;;;;;;;1.20;99.90;;;;;;12343071;28;20068;-39
2022/12/05 21:22:28;;;;;;;;;;;1.20;99.90;;;;;;12338365;28;19934;-39
2022/12/05 21:28:31;;;;;;;;;;;1.10;99.90;;;;;;12322599;28;19937;-38
2022/12/05 21:34:32;;;;;;;;;;;1.10;99.90;;;;;;12339352;28;19930;-39
2022/12/05 21:40:36;;;;;;;;;;;1.10;99.90;;;;;;12341114;28;19978;-39
2022/12/05 21:46:38;;;;;;;;;;;1.10;99.90;;;;;;12342062;28;20341;-39
2022/12/05 21:52:40;;;;;;;;;;;1.20;99.90;;;;;;12347088;28;19937;-40
2022/12/05 21:58:42;;;;;;;;;;;1.20;99.90;;;;;;12344565;28;19933;-39
2022/12/05 22:04:44;;;;;;;;;;;1.20;99.90;;;;;;12341919;28;19930;-39
2022/12/05 22:10:45;;;;;;;;;;;1.30;99.90;;;;;;12329207;28;20294;-39
2022/12/05 22:16:47;;;;;;;;;;;1.30;99.90;;;;;;12339113;28;20297;-39
2022/12/05 22:22:49;;;;;;;;;;;1.30;99.90;;;;;;12339354;28;19930;-38
2022/12/05 22:28:51;;;;;;;;;;;1.30;99.90;;;;;;12333075;28;19927;-39
2022/12/05 22:34:53;;;;;;;;;;;1.30;99.90;;;;;;12335030;28;19934;-39
2022/12/05 22:41:01;;;;;;;;;;;1.30;99.90;;;;;;12339520;28;19930;-38
2022/12/05 22:47:02;;;;;;;;;;;1.20;99.90;;;;;;12337221;28;20283;-39
2022/12/05 22:53:04;;;;;;;;;;;1.10;99.90;;;;;;12341493;28;19980;-39
2022/12/05 22:59:06;;;;;;;;;;;1.10;99.90;;;;;;12339496;28;19926;-39
2022/12/05 23:05:14;;;;;;;;;;;1.10;99.90;;;;;;12340962;28;20341;-39
2022/12/05 23:11:17;;;;;;;;;;;1.10;99.90;;;;;;12335446;28;19926;-39
2022/12/05 23:17:19;;;;;;;;;;;1.10;99.90;;;;;;12336993;28;19996;-39
2022/12/05 23:23:20;;;;;;;;;;;1.00;99.90;;;;;;12338885;28;19949;-39
2022/12/05 23:29:22;;;;;;;;;;;1.00;99.90;;;;;;12338553;28;19934;-38
2022/12/05 23:35:24;;;;;;;;;;;1.00;99.90;;;;;;12340052;28;19926;-39
2022/12/05 23:41:26;;;;;;;;;;;1.00;99.90;;;;;;12350213;28;19933;-39
2022/12/05 23:47:28;;;;;;;;;;;0.90;99.90;;;;;;12348947;28;19961;-39
2022/12/05 23:53:30;;;;;;;;;;;1.00;99.90;;;;;;12352198;28;20020;-39
2022/12/05 23:59:32;;;;;;;;;;;1.00;99.90;;;;;;12346673;28;20306;-39
